sensor_id;sensor_type;location;lat;lon;timestamp;P1;P2;P0
70554;PMS5003;58104;52.744;15.242;2024-03-23T00:53:08;14;12;
70554;PMS5003;58104;52.744;15.242;2024-03-23T00:55:33;17;13;
70554;PMS5003;58104;52.744;15.242;2024-03-23T00:57:59;13;11;
70554;PMS5003;58104;52.744;15.242;2024-03-23T01:00:24;16;13;
70554;PMS5003;58104;52.744;15.242;2024-03-23T01:02:49;14;14;
70554;PMS5003;58104;52.744;15.242;2024-03-23T01:05:15;11;11;
70554;PMS5003;58104;52.744;15.242;2024-03-23T01:07:40;12;12;
70554;PMS5003;58104;52.744;15.242;2024-03-23T01:10:06;17;16;
70554;PMS5003;58104;52.744;15.242;2024-03-23T01:12:31;8;8;
70554;PMS5003;58104;52.744;15.242;2024-03-23T01:14:56;12;10;
70554;PMS5003;58104;52.744;15.242;2024-03-23T01:17:22;10;10;
70554;PMS5003;58104;52.744;15.242;2024-03-23T01:19:47;13;11;
70554;PMS5003;58104;52.744;15.242;2024-03-23T01:22:12;12;10;
70554;PMS5003;58104;52.744;15.242;2024-03-23T01:24:38;13;12;
70554;PMS5003;58104;52.744;15.242;2024-03-23T01:27:03;10;10;
70554;PMS5003;58104;52.744;15.242;2024-03-23T01:29:28;9;9;
70554;PMS5003;58104;52.744;15.242;2024-03-23T01:31:54;8;8;
70554;PMS5003;58104;52.744;15.242;2024-03-23T01:34:19;13;12;
70554;PMS5003;58104;52.744;15.242;2024-03-23T01:36:45;10;9;
70554;PMS5003;58104;52.744;15.242;2024-03-23T01:39:10;8;8;
70554;PMS5003;58104;52.744;15.242;2024-03-23T01:41:36;9;9;
70554;PMS5003;58104;52.744;15.242;2024-03-23T01:44:01;7;7;
70554;PMS5003;58104;52.744;15.242;2024-03-23T01:46:26;11;9;
70554;PMS5003;58104;52.744;15.242;2024-03-23T01:48:52;12;10;
70554;PMS5003;58104;52.744;15.242;2024-03-23T01:51:17;10;8;
70554;PMS5003;58104;52.744;15.242;2024-03-23T01:53:43;10;8;
70554;PMS5003;58104;52.744;15.242;2024-03-23T01:56:08;9;9;
70554;PMS5003;58104;52.744;15.242;2024-03-23T01:58:33;8;6;
70554;PMS5003;58104;52.744;15.242;2024-03-23T02:00:59;7;7;
70554;PMS5003;58104;52.744;15.242;2024-03-23T02:03:24;7;7;
70554;PMS5003;58104;52.744;15.242;2024-03-23T02:05:50;9;6;
70554;PMS5003;58104;52.744;15.242;2024-03-23T02:08:15;7;7;
70554;PMS5003;58104;52.744;15.242;2024-03-23T02:10:40;10;7;
70554;PMS5003;58104;52.744;15.242;2024-03-23T02:13:06;8;5;
70554;PMS5003;58104;52.744;15.242;2024-03-23T02:15:31;8;6;
70554;PMS5003;58104;52.744;15.242;2024-03-23T02:17:57;6;6;
70554;PMS5003;58104;52.744;15.242;2024-03-23T02:20:22;8;6;
70554;PMS5003;58104;52.744;15.242;2024-03-23T02:22:50;9;8;
70554;PMS5003;58104;52.744;15.242;2024-03-23T02:25:13;7;7;
70554;PMS5003;58104;52.744;15.242;2024-03-23T02:27:38;8;5;
70554;PMS5003;58104;52.744;15.242;2024-03-23T02:30:04;6;6;
70554;PMS5003;58104;52.744;15.242;2024-03-23T02:32:29;5;5;
70554;PMS5003;58104;52.744;15.242;2024-03-23T02:34:55;8;6;
70554;PMS5003;58104;52.744;15.242;2024-03-23T02:37:20;6;6;
70554;PMS5003;58104;52.744;15.242;2024-03-23T02:39:45;7;5;
70554;PMS5003;58104;52.744;15.242;2024-03-23T02:42:11;9;5;
70554;PMS5003;58104;52.744;15.242;2024-03-23T02:44:36;6;6;
70554;PMS5003;58104;52.744;15.242;2024-03-23T02:47:01;7;6;
70554;PMS5003;58104;52.744;15.242;2024-03-23T02:49:26;4;4;
70554;PMS5003;58104;52.744;15.242;2024-03-23T02:51:52;6;6;
70554;PMS5003;58104;52.744;15.242;2024-03-23T02:54:17;6;5;
70554;PMS5003;58104;52.744;15.242;2024-03-23T02:56:42;7;6;
70554;PMS5003;58104;52.744;15.242;2024-03-23T02:59:08;10;6;
70554;PMS5003;58104;52.744;15.242;2024-03-23T03:01:33;6;6;
70554;PMS5003;58104;52.744;15.242;2024-03-23T03:03:59;5;4;
70554;PMS5003;58104;52.744;15.242;2024-03-23T03:06:24;6;6;
70554;PMS5003;58104;52.744;15.242;2024-03-23T03:08:49;5;5;
70554;PMS5003;58104;52.744;15.242;2024-03-23T03:11:14;5;5;
70554;PMS5003;58104;52.744;15.242;2024-03-23T03:13:40;10;6;
70554;PMS5003;58104;52.744;15.242;2024-03-23T03:16:08;6;6;
70554;PMS5003;58104;52.744;15.242;2024-03-23T03:18:31;5;4;
70554;PMS5003;58104;52.744;15.242;2024-03-23T03:20:56;8;8;
70554;PMS5003;58104;52.744;15.242;2024-03-23T03:23:21;4;4;
70554;PMS5003;58104;52.744;15.242;2024-03-23T03:25:47;6;6;
70554;PMS5003;58104;52.744;15.242;2024-03-23T03:28:12;8;6;
70554;PMS5003;58104;52.744;15.242;2024-03-23T03:30:37;5;3;
70554;PMS5003;58104;52.744;15.242;2024-03-23T03:33:02;9;5;
70554;PMS5003;58104;52.744;15.242;2024-03-23T03:35:28;5;4;
70554;PMS5003;58104;52.744;15.242;2024-03-23T03:37:53;4;4;
70554;PMS5003;58104;52.744;15.242;2024-03-23T03:40:18;5;5;
70554;PMS5003;58104;52.744;15.242;2024-03-23T03:42:44;5;5;
70554;PMS5003;58104;52.744;15.242;2024-03-23T03:45:09;5;3;
70554;PMS5003;58104;52.744;15.242;2024-03-23T03:47:35;5;4;
70554;PMS5003;58104;52.744;15.242;2024-03-23T03:50:00;8;8;
70554;PMS5003;58104;52.744;15.242;2024-03-23T03:52:25;3;3;
70554;PMS5003;58104;52.744;15.242;2024-03-23T03:54:51;6;5;
70554;PMS5003;58104;52.744;15.242;2024-03-23T03:57:16;8;5;
70554;PMS5003;58104;52.744;15.242;2024-03-23T03:59:42;6;5;
70554;PMS5003;58104;52.744;15.242;2024-03-23T04:02:07;6;6;
70554;PMS5003;58104;52.744;15.242;2024-03-23T04:04:32;5;4;
70554;PMS5003;58104;52.744;15.242;2024-03-23T04:06:59;6;4;
70554;PMS5003;58104;52.744;15.242;2024-03-23T04:09:22;7;7;
70554;PMS5003;58104;52.744;15.242;2024-03-23T04:11:48;5;5;
70554;PMS5003;58104;52.744;15.242;2024-03-23T04:14:13;7;6;
70554;PMS5003;58104;52.744;15.242;2024-03-23T04:16:39;6;5;
70554;PMS5003;58104;52.744;15.242;2024-03-23T04:19:04;4;3;
70554;PMS5003;58104;52.744;15.242;2024-03-23T04:21:29;6;4;
70554;PMS5003;58104;52.744;15.242;2024-03-23T04:23:54;6;5;
70554;PMS5003;58104;52.744;15.242;2024-03-23T04:26:20;5;3;
70554;PMS5003;58104;52.744;15.242;2024-03-23T04:28:45;4;4;
70554;PMS5003;58104;52.744;15.242;2024-03-23T04:31:11;4;4;
70554;PMS5003;58104;52.744;15.242;2024-03-23T04:33:37;5;5;
70554;PMS5003;58104;52.744;15.242;2024-03-23T04:36:02;5;5;
70554;PMS5003;58104;52.744;15.242;2024-03-23T04:38:27;8;5;
70554;PMS5003;58104;52.744;15.242;2024-03-23T04:40:54;4;4;
70554;PMS5003;58104;52.744;15.242;2024-03-23T04:43:18;8;6;
70554;PMS5003;58104;52.744;15.242;2024-03-23T04:45:43;5;5;
70554;PMS5003;58104;52.744;15.242;2024-03-23T04:48:08;7;5;
70554;PMS5003;58104;52.744;15.242;2024-03-23T04:50:34;5;5;
70554;PMS5003;58104;52.744;15.242;2024-03-23T04:52:59;8;4;
70554;PMS5003;58104;52.744;15.242;2024-03-23T04:55:25;5;5;
70554;PMS5003;58104;52.744;15.242;2024-03-23T04:57:51;11;9;
70554;PMS5003;58104;52.744;15.242;2024-03-23T05:00:17;3;3;
70554;PMS5003;58104;52.744;15.242;2024-03-23T05:02:42;6;6;
70554;PMS5003;58104;52.744;15.242;2024-03-23T05:05:07;6;5;
70554;PMS5003;58104;52.744;15.242;2024-03-23T05:07:33;7;5;
70554;PMS5003;58104;52.744;15.242;2024-03-23T05:09:58;3;3;
70554;PMS5003;58104;52.744;15.242;2024-03-23T05:12:24;6;4;
70554;PMS5003;58104;52.744;15.242;2024-03-23T05:14:49;4;4;
70554;PMS5003;58104;52.744;15.242;2024-03-23T05:17:14;6;6;
70554;PMS5003;58104;52.744;15.242;2024-03-23T05:19:40;8;6;
70554;PMS5003;58104;52.744;15.242;2024-03-23T05:22:05;5;5;
70554;PMS5003;58104;52.744;15.242;2024-03-23T05:24:31;5;5;
70554;PMS5003;58104;52.744;15.242;2024-03-23T05:26:56;9;6;
70554;PMS5003;58104;52.744;15.242;2024-03-23T05:29:21;10;5;
70554;PMS5003;58104;52.744;15.242;2024-03-23T05:31:49;5;4;
70554;PMS5003;58104;52.744;15.242;2024-03-23T05:34:12;6;4;
70554;PMS5003;58104;52.744;15.242;2024-03-23T05:36:37;5;5;
70554;PMS5003;58104;52.744;15.242;2024-03-23T05:39:03;5;5;
70554;PMS5003;58104;52.744;15.242;2024-03-23T05:41:28;6;6;
70554;PMS5003;58104;52.744;15.242;2024-03-23T05:43:53;5;5;
70554;PMS5003;58104;52.744;15.242;2024-03-23T05:46:19;9;6;
70554;PMS5003;58104;52.744;15.242;2024-03-23T05:48:44;7;4;
70554;PMS5003;58104;52.744;15.242;2024-03-23T05:51:09;5;5;
70554;PMS5003;58104;52.744;15.242;2024-03-23T05:53:35;7;5;
70554;PMS5003;58104;52.744;15.242;2024-03-23T05:56:00;8;5;
70554;PMS5003;58104;52.744;15.242;2024-03-23T05:58:26;6;5;
70554;PMS5003;58104;52.744;15.242;2024-03-23T06:00:56;7;5;
70554;PMS5003;58104;52.744;15.242;2024-03-23T06:03:16;6;5;
70554;PMS5003;58104;52.744;15.242;2024-03-23T06:05:42;5;5;
70554;PMS5003;58104;52.744;15.242;2024-03-23T06:08:08;8;5;
70554;PMS5003;58104;52.744;15.242;2024-03-23T06:10:33;6;5;
70554;PMS5003;58104;52.744;15.242;2024-03-23T06:12:58;3;3;
70554;PMS5003;58104;52.744;15.242;2024-03-23T06:15:24;6;5;
70554;PMS5003;58104;52.744;15.242;2024-03-23T06:17:49;6;4;
70554;PMS5003;58104;52.744;15.242;2024-03-23T06:20:15;3;3;
70554;PMS5003;58104;52.744;15.242;2024-03-23T06:22:40;3;3;
70554;PMS5003;58104;52.744;15.242;2024-03-23T06:25:05;3;3;
70554;PMS5003;58104;52.744;15.242;2024-03-23T06:27:31;5;5;
70554;PMS5003;58104;52.744;15.242;2024-03-23T06:29:56;4;4;
70554;PMS5003;58104;52.744;15.242;2024-03-23T06:32:22;8;6;
70554;PMS5003;58104;52.744;15.242;2024-03-23T06:34:47;8;8;
70554;PMS5003;58104;52.744;15.242;2024-03-23T06:37:12;4;4;
70554;PMS5003;58104;52.744;15.242;2024-03-23T06:39:38;4;4;
70554;PMS5003;58104;52.744;15.242;2024-03-23T06:42:04;6;4;
70554;PMS5003;58104;52.744;15.242;2024-03-23T06:44:29;7;7;
70554;PMS5003;58104;52.744;15.242;2024-03-23T06:46:54;7;5;
70554;PMS5003;58104;52.744;15.242;2024-03-23T06:49:19;6;6;
70554;PMS5003;58104;52.744;15.242;2024-03-23T06:51:45;5;5;
70554;PMS5003;58104;52.744;15.242;2024-03-23T06:54:10;10;6;
70554;PMS5003;58104;52.744;15.242;2024-03-23T06:56:36;9;5;
70554;PMS5003;58104;52.744;15.242;2024-03-23T06:59:01;10;8;
70554;PMS5003;58104;52.744;15.242;2024-03-23T07:01:27;11;6;
70554;PMS5003;58104;52.744;15.242;2024-03-23T07:03:52;5;5;
70554;PMS5003;58104;52.744;15.242;2024-03-23T07:06:17;7;7;
70554;PMS5003;58104;52.744;15.242;2024-03-23T07:08:43;9;7;
70554;PMS5003;58104;52.744;15.242;2024-03-23T07:11:08;7;6;
70554;PMS5003;58104;52.744;15.242;2024-03-23T07:13:34;5;3;
70554;PMS5003;58104;52.744;15.242;2024-03-23T07:15:59;5;5;
70554;PMS5003;58104;52.744;15.242;2024-03-23T07:18:24;4;4;
70554;PMS5003;58104;52.744;15.242;2024-03-23T07:20:53;8;5;
70554;PMS5003;58104;52.744;15.242;2024-03-23T07:23:15;5;5;
70554;PMS5003;58104;52.744;15.242;2024-03-23T07:25:41;6;6;
70554;PMS5003;58104;52.744;15.242;2024-03-23T07:28:06;11;7;
70554;PMS5003;58104;52.744;15.242;2024-03-23T07:30:31;7;6;
70554;PMS5003;58104;52.744;15.242;2024-03-23T07:32:57;8;6;
70554;PMS5003;58104;52.744;15.242;2024-03-23T07:35:22;4;4;
70554;PMS5003;58104;52.744;15.242;2024-03-23T07:37:48;9;6;
70554;PMS5003;58104;52.744;15.242;2024-03-23T07:40:13;7;7;
70554;PMS5003;58104;52.744;15.242;2024-03-23T07:42:39;6;6;
70554;PMS5003;58104;52.744;15.242;2024-03-23T07:45:05;5;5;
70554;PMS5003;58104;52.744;15.242;2024-03-23T07:47:30;5;5;
70554;PMS5003;58104;52.744;15.242;2024-03-23T07:49:55;21;18;
70554;PMS5003;58104;52.744;15.242;2024-03-23T07:52:21;13;10;
70554;PMS5003;58104;52.744;15.242;2024-03-23T07:54:46;13;12;
70554;PMS5003;58104;52.744;15.242;2024-03-23T07:57:12;11;9;
70554;PMS5003;58104;52.744;15.242;2024-03-23T07:59:37;12;10;
70554;PMS5003;58104;52.744;15.242;2024-03-23T08:02:02;9;9;
70554;PMS5003;58104;52.744;15.242;2024-03-23T08:04:28;14;11;
70554;PMS5003;58104;52.744;15.242;2024-03-23T08:06:53;10;10;
70554;PMS5003;58104;52.744;15.242;2024-03-23T08:09:19;8;8;
70554;PMS5003;58104;52.744;15.242;2024-03-23T08:11:44;10;10;
70554;PMS5003;58104;52.744;15.242;2024-03-23T08:14:09;8;6;
70554;PMS5003;58104;52.744;15.242;2024-03-23T08:16:34;7;7;
70554;PMS5003;58104;52.744;15.242;2024-03-23T08:18:59;11;10;
70554;PMS5003;58104;52.744;15.242;2024-03-23T08:21:25;7;6;
70554;PMS5003;58104;52.744;15.242;2024-03-23T08:23:50;13;8;
70554;PMS5003;58104;52.744;15.242;2024-03-23T08:26:16;16;14;
70554;PMS5003;58104;52.744;15.242;2024-03-23T08:28:41;12;11;
70554;PMS5003;58104;52.744;15.242;2024-03-23T08:31:07;8;6;
70554;PMS5003;58104;52.744;15.242;2024-03-23T08:33:32;8;8;
70554;PMS5003;58104;52.744;15.242;2024-03-23T08:35:58;14;11;
70554;PMS5003;58104;52.744;15.242;2024-03-23T08:38:23;10;9;
70554;PMS5003;58104;52.744;15.242;2024-03-23T08:43:13;8;8;
70554;PMS5003;58104;52.744;15.242;2024-03-23T08:45:39;11;7;
70554;PMS5003;58104;52.744;15.242;2024-03-23T08:48:05;10;6;
70554;PMS5003;58104;52.744;15.242;2024-03-23T08:50:30;12;7;
70554;PMS5003;58104;52.744;15.242;2024-03-23T08:52:55;6;6;
70554;PMS5003;58104;52.744;15.242;2024-03-23T08:55:20;6;6;
70554;PMS5003;58104;52.744;15.242;2024-03-23T08:57:46;7;7;
70554;PMS5003;58104;52.744;15.242;2024-03-23T09:00:12;7;4;
70554;PMS5003;58104;52.744;15.242;2024-03-23T09:02:37;31;25;
70554;PMS5003;58104;52.744;15.242;2024-03-23T09:05:03;56;41;
70554;PMS5003;58104;52.744;15.242;2024-03-23T09:07:28;31;25;
70554;PMS5003;58104;52.744;15.242;2024-03-23T09:09:54;23;17;
70554;PMS5003;58104;52.744;15.242;2024-03-23T09:12:19;24;22;
70554;PMS5003;58104;52.744;15.242;2024-03-23T09:14:44;15;14;
70554;PMS5003;58104;52.744;15.242;2024-03-23T09:17:10;22;20;
70554;PMS5003;58104;52.744;15.242;2024-03-23T09:19:35;23;18;
70554;PMS5003;58104;52.744;15.242;2024-03-23T09:22:00;14;10;
70554;PMS5003;58104;52.744;15.242;2024-03-23T09:24:25;17;12;
70554;PMS5003;58104;52.744;15.242;2024-03-23T09:26:51;19;14;
70554;PMS5003;58104;52.744;15.242;2024-03-23T09:29:16;20;18;
70554;PMS5003;58104;52.744;15.242;2024-03-23T09:31:41;37;28;
70554;PMS5003;58104;52.744;15.242;2024-03-23T09:34:06;14;14;
70554;PMS5003;58104;52.744;15.242;2024-03-23T09:36:32;17;14;
70554;PMS5003;58104;52.744;15.242;2024-03-23T09:38:58;15;11;
70554;PMS5003;58104;52.744;15.242;2024-03-23T09:41:23;13;12;
70554;PMS5003;58104;52.744;15.242;2024-03-23T09:43:51;15;12;
70554;PMS5003;58104;52.744;15.242;2024-03-23T09:46:14;10;8;
70554;PMS5003;58104;52.744;15.242;2024-03-23T09:48:39;14;12;
70554;PMS5003;58104;52.744;15.242;2024-03-23T09:51:05;11;7;
70554;PMS5003;58104;52.744;15.242;2024-03-23T09:53:31;12;11;
70554;PMS5003;58104;52.744;15.242;2024-03-23T09:55:55;16;10;
70554;PMS5003;58104;52.744;15.242;2024-03-23T09:58:23;11;8;
70554;PMS5003;58104;52.744;15.242;2024-03-23T10:00:46;13;10;
70554;PMS5003;58104;52.744;15.242;2024-03-23T10:03:12;8;7;
70554;PMS5003;58104;52.744;15.242;2024-03-23T10:05:37;11;11;
70554;PMS5003;58104;52.744;15.242;2024-03-23T10:08:16;9;9;
70554;PMS5003;58104;52.744;15.242;2024-03-23T10:10:28;10;8;
70554;PMS5003;58104;52.744;15.242;2024-03-23T10:12:53;10;10;
70554;PMS5003;58104;52.744;15.242;2024-03-23T10:15:19;9;9;
70554;PMS5003;58104;52.744;15.242;2024-03-23T10:17:44;11;8;
70554;PMS5003;58104;52.744;15.242;2024-03-23T10:20:09;11;9;
70554;PMS5003;58104;52.744;15.242;2024-03-23T10:22:36;9;8;
70554;PMS5003;58104;52.744;15.242;2024-03-23T10:25:06;11;9;
70554;PMS5003;58104;52.744;15.242;2024-03-23T10:27:24;15;12;
70554;PMS5003;58104;52.744;15.242;2024-03-23T10:29:50;11;6;
70554;PMS5003;58104;52.744;15.242;2024-03-23T10:32:15;9;8;
70554;PMS5003;58104;52.744;15.242;2024-03-23T10:34:41;13;8;
70554;PMS5003;58104;52.744;15.242;2024-03-23T10:37:07;12;9;
70554;PMS5003;58104;52.744;15.242;2024-03-23T10:39:32;13;11;
70554;PMS5003;58104;52.744;15.242;2024-03-23T10:41:57;8;8;
70554;PMS5003;58104;52.744;15.242;2024-03-23T10:44:22;10;10;
70554;PMS5003;58104;52.744;15.242;2024-03-23T10:46:48;11;8;
70554;PMS5003;58104;52.744;15.242;2024-03-23T10:49:13;8;8;
70554;PMS5003;58104;52.744;15.242;2024-03-23T10:51:38;11;9;
70554;PMS5003;58104;52.744;15.242;2024-03-23T10:54:04;13;7;
70554;PMS5003;58104;52.744;15.242;2024-03-23T10:56:29;10;6;
70554;PMS5003;58104;52.744;15.242;2024-03-23T10:58:54;9;5;
70554;PMS5003;58104;52.744;15.242;2024-03-23T11:01:20;7;7;
70554;PMS5003;58104;52.744;15.242;2024-03-23T11:03:45;11;7;
70554;PMS5003;58104;52.744;15.242;2024-03-23T11:06:11;9;6;
70554;PMS5003;58104;52.744;15.242;2024-03-23T11:08:36;7;6;
70554;PMS5003;58104;52.744;15.242;2024-03-23T11:13:27;6;5;
70554;PMS5003;58104;52.744;15.242;2024-03-23T11:15:52;5;5;
70554;PMS5003;58104;52.744;15.242;2024-03-23T11:18:21;10;8;
70554;PMS5003;58104;52.744;15.242;2024-03-23T11:20:43;9;8;
70554;PMS5003;58104;52.744;15.242;2024-03-23T11:23:09;5;5;
70554;PMS5003;58104;52.744;15.242;2024-03-23T11:25:34;9;6;
70554;PMS5003;58104;52.744;15.242;2024-03-23T11:30:26;8;8;
70554;PMS5003;58104;52.744;15.242;2024-03-23T11:32:51;9;6;
70554;PMS5003;58104;52.744;15.242;2024-03-23T11:35:25;11;6;
70554;PMS5003;58104;52.744;15.242;2024-03-23T11:37:42;8;6;
70554;PMS5003;58104;52.744;15.242;2024-03-23T11:42:32;11;8;
70554;PMS5003;58104;52.744;15.242;2024-03-23T11:44:58;8;6;
70554;PMS5003;58104;52.744;15.242;2024-03-23T11:47:23;7;5;
70554;PMS5003;58104;52.744;15.242;2024-03-23T11:49:49;7;7;
70554;PMS5003;58104;52.744;15.242;2024-03-23T11:52:14;6;6;
70554;PMS5003;58104;52.744;15.242;2024-03-23T11:54:40;8;6;
70554;PMS5003;58104;52.744;15.242;2024-03-23T11:57:07;7;7;
70554;PMS5003;58104;52.744;15.242;2024-03-23T11:59:31;6;4;
70554;PMS5003;58104;52.744;15.242;2024-03-23T12:01:56;7;7;
70554;PMS5003;58104;52.744;15.242;2024-03-23T12:04:24;6;6;
70554;PMS5003;58104;52.744;15.242;2024-03-23T12:06:47;7;5;
70554;PMS5003;58104;52.744;15.242;2024-03-23T12:09:12;9;5;
70554;PMS5003;58104;52.744;15.242;2024-03-23T12:11:38;10;6;
70554;PMS5003;58104;52.744;15.242;2024-03-23T12:14:03;5;5;
70554;PMS5003;58104;52.744;15.242;2024-03-23T12:16:28;6;6;
70554;PMS5003;58104;52.744;15.242;2024-03-23T12:18:55;6;5;
70554;PMS5003;58104;52.744;15.242;2024-03-23T12:21:19;5;4;
70554;PMS5003;58104;52.744;15.242;2024-03-23T12:23:45;6;5;
70554;PMS5003;58104;52.744;15.242;2024-03-23T12:26:10;6;6;
70554;PMS5003;58104;52.744;15.242;2024-03-23T12:28:36;7;7;
70554;PMS5003;58104;52.744;15.242;2024-03-23T12:31:01;9;9;
70554;PMS5003;58104;52.744;15.242;2024-03-23T12:33:27;7;7;
70554;PMS5003;58104;52.744;15.242;2024-03-23T12:35:52;6;6;
70554;PMS5003;58104;52.744;15.242;2024-03-23T12:38:18;8;5;
70554;PMS5003;58104;52.744;15.242;2024-03-23T12:40:46;4;3;
70554;PMS5003;58104;52.744;15.242;2024-03-23T12:43:09;10;7;
70554;PMS5003;58104;52.744;15.242;2024-03-23T12:45:34;5;4;
70554;PMS5003;58104;52.744;15.242;2024-03-23T12:48:00;3;3;
70554;PMS5003;58104;52.744;15.242;2024-03-23T12:50:25;6;6;
70554;PMS5003;58104;52.744;15.242;2024-03-23T12:52:50;6;6;
70554;PMS5003;58104;52.744;15.242;2024-03-23T12:55:16;7;4;
70554;PMS5003;58104;52.744;15.242;2024-03-23T12:57:41;6;6;
70554;PMS5003;58104;52.744;15.242;2024-03-23T13:00:07;5;5;
70554;PMS5003;58104;52.744;15.242;2024-03-23T13:02:32;11;9;
70554;PMS5003;58104;52.744;15.242;2024-03-23T13:04:58;7;5;
70554;PMS5003;58104;52.744;15.242;2024-03-23T13:07:23;9;5;
70554;PMS5003;58104;52.744;15.242;2024-03-23T13:09:50;8;6;
70554;PMS5003;58104;52.744;15.242;2024-03-23T13:12:14;6;6;
70554;PMS5003;58104;52.744;15.242;2024-03-23T13:14:40;10;5;
70554;PMS5003;58104;52.744;15.242;2024-03-23T13:17:07;8;6;
70554;PMS5003;58104;52.744;15.242;2024-03-23T13:19:31;5;4;
70554;PMS5003;58104;52.744;15.242;2024-03-23T13:21:56;7;5;
70554;PMS5003;58104;52.744;15.242;2024-03-23T13:24:22;4;4;
70554;PMS5003;58104;52.744;15.242;2024-03-23T13:26:47;2;2;
70554;PMS5003;58104;52.744;15.242;2024-03-23T13:29:12;9;9;
70554;PMS5003;58104;52.744;15.242;2024-03-23T13:31:37;7;5;
70554;PMS5003;58104;52.744;15.242;2024-03-23T13:34:03;7;6;
70554;PMS5003;58104;52.744;15.242;2024-03-23T13:36:28;5;5;
70554;PMS5003;58104;52.744;15.242;2024-03-23T13:38:54;8;6;
70554;PMS5003;58104;52.744;15.242;2024-03-23T13:41:19;8;6;
70554;PMS5003;58104;52.744;15.242;2024-03-23T13:43:44;6;6;
70554;PMS5003;58104;52.744;15.242;2024-03-23T13:46:10;5;5;
70554;PMS5003;58104;52.744;15.242;2024-03-23T13:48:35;6;6;
70554;PMS5003;58104;52.744;15.242;2024-03-23T13:51:01;5;5;
70554;PMS5003;58104;52.744;15.242;2024-03-23T13:53:27;5;3;
70554;PMS5003;58104;52.744;15.242;2024-03-23T13:55:54;6;4;
70554;PMS5003;58104;52.744;15.242;2024-03-23T13:58:17;10;5;
70554;PMS5003;58104;52.744;15.242;2024-03-23T14:00:42;6;6;
70554;PMS5003;58104;52.744;15.242;2024-03-23T14:03:08;9;6;
70554;PMS5003;58104;52.744;15.242;2024-03-23T14:05:35;6;5;
70554;PMS5003;58104;52.744;15.242;2024-03-23T14:07:59;5;5;
70554;PMS5003;58104;52.744;15.242;2024-03-23T14:10:24;6;6;
70554;PMS5003;58104;52.744;15.242;2024-03-23T14:12:50;12;8;
70554;PMS5003;58104;52.744;15.242;2024-03-23T14:15:15;11;7;
70554;PMS5003;58104;52.744;15.242;2024-03-23T14:17:41;8;8;
70554;PMS5003;58104;52.744;15.242;2024-03-23T14:20:06;6;6;
70554;PMS5003;58104;52.744;15.242;2024-03-23T14:22:31;8;7;
70554;PMS5003;58104;52.744;15.242;2024-03-23T14:24:57;7;5;
70554;PMS5003;58104;52.744;15.242;2024-03-23T14:27:22;12;7;
70554;PMS5003;58104;52.744;15.242;2024-03-23T14:29:48;7;7;
70554;PMS5003;58104;52.744;15.242;2024-03-23T14:32:13;8;6;
70554;PMS5003;58104;52.744;15.242;2024-03-23T14:34:39;6;5;
70554;PMS5003;58104;52.744;15.242;2024-03-23T14:37:04;10;6;
70554;PMS5003;58104;52.744;15.242;2024-03-23T14:39:29;5;5;
70554;PMS5003;58104;52.744;15.242;2024-03-23T14:41:55;8;5;
70554;PMS5003;58104;52.744;15.242;2024-03-23T14:44:20;5;5;
70554;PMS5003;58104;52.744;15.242;2024-03-23T14:46:46;6;6;
70554;PMS5003;58104;52.744;15.242;2024-03-23T14:49:14;7;7;
70554;PMS5003;58104;52.744;15.242;2024-03-23T14:51:37;3;3;
70554;PMS5003;58104;52.744;15.242;2024-03-23T14:54:02;7;4;
70554;PMS5003;58104;52.744;15.242;2024-03-23T14:56:28;9;5;
70554;PMS5003;58104;52.744;15.242;2024-03-23T14:58:53;6;5;
70554;PMS5003;58104;52.744;15.242;2024-03-23T15:01:19;5;5;
70554;PMS5003;58104;52.744;15.242;2024-03-23T15:03:44;4;4;
70554;PMS5003;58104;52.744;15.242;2024-03-23T15:06:10;6;4;
70554;PMS5003;58104;52.744;15.242;2024-03-23T15:08:35;3;3;
70554;PMS5003;58104;52.744;15.242;2024-03-23T15:11:00;7;5;
70554;PMS5003;58104;52.744;15.242;2024-03-23T15:13:26;4;4;
70554;PMS5003;58104;52.744;15.242;2024-03-23T15:15:51;6;5;
70554;PMS5003;58104;52.744;15.242;2024-03-23T15:18:17;3;2;
70554;PMS5003;58104;52.744;15.242;2024-03-23T15:23:08;6;4;
70554;PMS5003;58104;52.744;15.242;2024-03-23T15:25:33;6;5;
70554;PMS5003;58104;52.744;15.242;2024-03-23T15:27:59;2;2;
70554;PMS5003;58104;52.744;15.242;2024-03-23T15:30:24;6;4;
70554;PMS5003;58104;52.744;15.242;2024-03-23T15:32:50;5;5;
70554;PMS5003;58104;52.744;15.242;2024-03-23T15:35:15;2;2;
70554;PMS5003;58104;52.744;15.242;2024-03-23T15:37:41;3;1;
70554;PMS5003;58104;52.744;15.242;2024-03-23T15:40:07;5;3;
70554;PMS5003;58104;52.744;15.242;2024-03-23T15:42:31;3;3;
70554;PMS5003;58104;52.744;15.242;2024-03-23T15:44:57;4;3;
70554;PMS5003;58104;52.744;15.242;2024-03-23T15:47:22;4;4;
70554;PMS5003;58104;52.744;15.242;2024-03-23T15:49:48;3;3;
70554;PMS5003;58104;52.744;15.242;2024-03-23T15:52:13;9;9;
70554;PMS5003;58104;52.744;15.242;2024-03-23T15:54:38;4;4;
70554;PMS5003;58104;52.744;15.242;2024-03-23T15:57:04;6;6;
70554;PMS5003;58104;52.744;15.242;2024-03-23T15:59:29;4;4;
70554;PMS5003;58104;52.744;15.242;2024-03-23T16:01:55;5;5;
70554;PMS5003;58104;52.744;15.242;2024-03-23T16:04:20;6;6;
70554;PMS5003;58104;52.744;15.242;2024-03-23T16:06:45;6;4;
70554;PMS5003;58104;52.744;15.242;2024-03-23T16:09:11;8;6;
70554;PMS5003;58104;52.744;15.242;2024-03-23T16:11:36;4;4;
70554;PMS5003;58104;52.744;15.242;2024-03-23T16:14:02;8;5;
70554;PMS5003;58104;52.744;15.242;2024-03-23T16:16:27;5;5;
70554;PMS5003;58104;52.744;15.242;2024-03-23T16:18:52;4;4;
70554;PMS5003;58104;52.744;15.242;2024-03-23T16:21:18;7;4;
70554;PMS5003;58104;52.744;15.242;2024-03-23T16:23:43;6;4;
70554;PMS5003;58104;52.744;15.242;2024-03-23T16:26:09;7;6;
70554;PMS5003;58104;52.744;15.242;2024-03-23T16:28:35;6;4;
70554;PMS5003;58104;52.744;15.242;2024-03-23T16:31:00;5;5;
70554;PMS5003;58104;52.744;15.242;2024-03-23T16:33:25;7;4;
70554;PMS5003;58104;52.744;15.242;2024-03-23T16:35:56;6;6;
70554;PMS5003;58104;52.744;15.242;2024-03-23T16:38:16;10;10;
70554;PMS5003;58104;52.744;15.242;2024-03-23T16:40:41;14;14;
70554;PMS5003;58104;52.744;15.242;2024-03-23T16:43:07;14;12;
70554;PMS5003;58104;52.744;15.242;2024-03-23T16:45:32;11;10;
70554;PMS5003;58104;52.744;15.242;2024-03-23T16:47:57;12;12;
70554;PMS5003;58104;52.744;15.242;2024-03-23T16:50:23;11;8;
70554;PMS5003;58104;52.744;15.242;2024-03-23T16:52:48;9;9;
70554;PMS5003;58104;52.744;15.242;2024-03-23T16:55:13;19;17;
70554;PMS5003;58104;52.744;15.242;2024-03-23T16:57:38;16;13;
70554;PMS5003;58104;52.744;15.242;2024-03-23T17:00:05;12;12;
70554;PMS5003;58104;52.744;15.242;2024-03-23T17:02:30;11;11;
70554;PMS5003;58104;52.744;15.242;2024-03-23T17:04:55;12;12;
70554;PMS5003;58104;52.744;15.242;2024-03-23T17:07:20;10;10;
70554;PMS5003;58104;52.744;15.242;2024-03-23T17:09:46;12;10;
70554;PMS5003;58104;52.744;15.242;2024-03-23T17:12:11;11;10;
70554;PMS5003;58104;52.744;15.242;2024-03-23T17:14:36;10;9;
70554;PMS5003;58104;52.744;15.242;2024-03-23T17:17:03;10;9;